Latest Weather Observations for Flinders Reef

IDQ60801

Issued at 7:02 am EST Monday 21 August 2017 (issued every 30 minutes, with the page automatically refreshed every 10 minutes)

About weather observations | Map of weather stations | Latest weather observations for QLD | Other Formats
Station Details ID: 200783 Name: FLINDERS REEF Lat: -17.72 Lon: 148.45 Height: 2.6 m
Data from the previous 72 hours. | See also: Recent months at Flinders Reef
Date/Time
EST
Temp
°C
App
Temp
°C
Dew
Point
°C
Rel
Hum
%
Delta-T
°C
Wind Press
QNH
hPa
Press
MSL
hPa
Rain since
9am
mm
Dir  Spd
km/h
Gust
km/h
Spd
kts
Gust
kts
21/07:00am 21.2 - - - - E 26 30 14 16 1017.9 - -
21/06:30am 21.0 - - - - ESE 26 35 14 19 1017.6 - -
21/06:24am 21.0 - - - - SE 30 - 16 - - 1017.5 -
21/06:00am 20.9 - - - - ESE 26 32 14 17 1017.3 - -
21/05:30am 20.8 - - - - ESE 28 33 15 18 1017.0 - -
21/05:24am 21.0 - - - - SE 26 - 14 - - 1016.8 -
21/05:00am 20.9 - - - - ESE 28 33 15 18 1016.7 - -
21/04:30am 20.7 - - - - ESE 24 32 13 17 1016.6 - -
21/04:24am 20.7 - - - - ESE 26 - 14 - - 1016.5 -
21/04:00am 20.8 - - - - SE 28 33 15 18 1016.4 - -
21/03:30am 20.7 - - - - SE 26 35 14 19 1016.5 - -
21/03:24am 21.0 - - - - SE 28 - 15 - - 1016.5 -
21/03:00am 20.8 - - - - SE 30 37 16 20 1016.5 - -
21/02:30am 21.1 - - - - SE 28 39 15 21 1016.7 - -
21/02:24am 21.0 - - - - SE 30 - 16 - - 1016.8 -
21/02:00am 21.0 - - - - SE 33 43 18 23 1016.9 - -
21/01:30am 21.2 - - - - SE 33 43 18 23 1017.1 - -
21/01:24am 21.2 - - - - SE 35 - 19 - - 1017.0 -
21/01:00am 21.3 - - - - SE 35 44 19 24 1017.3 - -
21/12:30am 21.4 - - - - SE 33 39 18 21 1017.7 - -
21/12:24am 21.4 - - - - SE 33 - 18 - - 1017.6 -
21/12:00am 21.4 - - - - SE 35 43 19 23 1017.8 - -
 
Date/Time
EST
Temp
°C
App
Temp
°C
Dew
Point
°C
Rel
Hum
%
Delta-T
°C
Wind Press
QNH
hPa
Press
MSL
hPa
Rain since
9am
mm
Dir  Spd
km/h
Gust
km/h
Spd
kts
Gust
kts
20/11:30pm 21.6 - - - - SE 33 41 18 22 1017.9 - -
20/11:24pm 21.4 - - - - SE 33 - 18 - - 1017.8 -
20/11:00pm 21.5 - - - - SE 35 46 19 25 1017.8 - -
20/10:30pm 21.6 - - - - SE 33 41 18 22 1017.8 - -
20/10:24pm 21.4 - - - - SE 33 - 18 - - 1017.6 -
20/10:00pm 21.6 - - - - SE 35 43 19 23 1017.6 - -
20/09:30pm 21.4 - - - - SE 37 46 20 25 1017.5 - -
20/09:24pm 21.5 - - - - SE 37 - 20 - - 1017.4 -
20/09:00pm 21.6 - - - - SE 37 44 20 24 1017.5 - -
20/08:30pm 21.5 - - - - SE 37 46 20 25 1017.4 - -
20/08:24pm 21.6 - - - - SE 37 - 20 - - 1017.3 -
20/08:00pm 21.5 - - - - SSE 37 44 20 24 1017.3 - -
20/07:30pm 21.9 - - - - SSE 37 46 20 25 1017.1 - -
20/07:24pm 21.5 - - - - SSE 37 - 20 - - 1017.0 -
20/07:00pm 21.6 - - - - SSE 39 50 21 27 1017.0 - -
20/06:30pm 21.9 - - - - SSE 39 44 21 24 1016.8 - -
20/06:24pm 21.6 - - - - SSE 41 - 22 - - 1016.6 -
20/06:00pm 21.8 - - - - SSE 41 52 22 28 1016.4 - -
20/05:30pm 22.1 - - - - SSE 39 48 21 26 1016.0 - -
20/05:24pm 21.9 - - - - SSE 39 - 21 - - 1015.8 -
20/05:00pm 22.3 - - - - SSE 41 48 22 26 1015.7 - -
20/04:30pm 22.3 - - - - SSE 41 46 22 25 1015.4 - -
20/04:24pm 22.3 - - - - SSE 39 - 21 - - 1015.3 -
20/04:00pm 22.3 - - - - SSE 41 48 22 26 1015.3 - -
20/03:30pm 22.6 - - - - SSE 39 46 21 25 1015.1 - -
20/03:24pm 22.8 - - - - SSE 39 - 21 - - 1015.1 -
20/03:00pm 22.9 - - - - SSE 33 39 18 21 1015.2 - -
20/02:30pm 23.2 - - - - SSE 32 37 17 20 1015.2 - -
20/02:24pm 23.2 - - - - SSE 32 - 17 - - 1015.1 -
20/02:00pm 23.1 - - - - SSE 30 35 16 19 1015.5 - -
20/01:30pm 23.3 - - - - SSE 33 39 18 21 1015.9 - -
20/01:24pm 23.1 - - - - SSE 33 - 18 - - 1015.8 -
20/01:00pm 23.4 - - - - S 30 37 16 20 1016.3 - -
20/12:30pm 23.3 - - - - SSE 30 35 16 19 1016.6 - -
20/12:24pm 23.3 - - - - SSE 32 - 17 - - 1016.5 -
20/12:00pm 23.4 - - - - SSE 32 41 17 22 1016.9 - -
20/11:30am 23.6 - - - - SSE 32 37 17 20 1017.2 - -
20/11:24am 23.6 - - - - SSE 30 - 16 - - 1017.2 -
20/11:00am 23.6 - - - - SSE 30 35 16 19 1017.7 - -
20/10:30am 23.8 - - - - SSE 30 35 16 19 1017.9 - -
20/10:24am 23.7 - - - - SSE 30 - 16 - - 1017.8 -
20/10:00am 23.9 - - - - SSE 30 37 16 20 1018.1 - -
20/09:30am 24.1 - - - - SSE 32 37 17 20 1018.2 - -
20/09:24am 24.0 - - - - SSE 30 - 16 - - 1018.0 -
20/09:00am 24.0 - - - - SSE 32 39 17 21 1018.0 - -
20/08:30am 23.9 - - - - SSE 32 39 17 21 1017.6 - -
20/08:24am 23.9 - - - - SSE 32 - 17 - - 1017.5 -
20/08:00am 23.8 - - - - SSE 30 39 16 21 1017.4 - -
20/07:30am 23.7 - - - - SSE 28 33 15 18 1017.2 - -
20/07:24am 23.5 - - - - SSE 26 - 14 - - 1017.1 -
20/07:00am 23.5 - - - - SSE 32 35 17 19 1016.8 - -
20/06:30am 23.4 - - - - SSE 30 35 16 19 1016.6 - -
20/06:24am 23.4 - - - - SSE 32 - 17 - - 1016.4 -
20/06:00am 23.3 - - - - SE 30 35 16 19 1016.4 - -
20/05:30am 23.2 - - - - SE 32 39 17 21 1016.3 - -
20/05:24am 23.2 - - - - SE 30 - 16 - - 1016.1 -
20/05:00am 23.3 - - - - SE 28 35 15 19 1016.0 - -
20/04:30am 23.1 - - - - SE 33 41 18 22 1015.8 - -
20/04:24am 23.2 - - - - SE 35 - 19 - - 1015.6 -
20/04:00am 23.3 - - - - SE 33 39 18 21 1015.7 - -
20/03:30am 23.3 - - - - SSE 35 43 19 23 1015.9 - -
20/03:24am 23.3 - - - - SSE 35 - 19 - - 1015.7 -
20/03:00am 23.5 - - - - SE 33 39 18 21 1016.0 - -
20/02:30am 23.5 - - - - SE 35 43 19 23 1016.1 - -
20/02:24am 23.2 - - - - SE 35 - 19 - - 1016.1 -
20/02:00am 23.5 - - - - SE 33 39 18 21 1016.2 - -
20/01:30am 23.5 - - - - SE 33 39 18 21 1016.5 - -
20/01:24am 23.4 - - - - SE 33 - 18 - - 1016.3 -
20/01:00am 23.4 - - - - SE 32 35 17 19 1016.7 - -
20/12:30am 23.4 - - - - SE 35 39 19 21 1016.8 - -
20/12:24am 23.3 - - - - SE 33 - 18 - - 1016.7 -
20/12:00am 23.5 - - - - SE 35 41 19 22 1016.8 - -
 
Date/Time
EST
Temp
°C
App
Temp
°C
Dew
Point
°C
Rel
Hum
%
Delta-T
°C
Wind Press
QNH
hPa
Press
MSL
hPa
Rain since
9am
mm
Dir  Spd
km/h
Gust
km/h
Spd
kts
Gust
kts
19/11:30pm 23.6 - - - - ESE 35 39 19 21 1016.9 - -
19/11:24pm 23.4 - - - - ESE 35 - 19 - - 1016.8 -
19/11:00pm 23.5 - - - - ESE 35 41 19 22 1017.0 - -
19/10:30pm 23.7 - - - - ESE 37 41 20 22 1017.0 - -
19/10:24pm 23.8 - - - - ESE 35 - 19 - - 1017.0 -
19/10:00pm 23.6 - - - - ESE 37 41 20 22 1017.1 - -
19/09:30pm 23.7 - - - - ESE 35 41 19 22 1017.0 - -
19/09:24pm 23.7 - - - - ESE 35 - 19 - - 1016.9 -
19/09:00pm 23.7 - - - - ESE 35 39 19 21 1016.9 - -
19/08:30pm 23.8 - - - - ESE 35 41 19 22 1016.6 - -
19/08:24pm 24.0 - - - - ESE 33 - 18 - - 1016.5 -
19/08:00pm 23.5 - - - - SE 35 41 19 22 1016.4 - -
19/07:30pm 23.5 - - - - SE 37 43 20 23 1016.1 - -
19/07:24pm 23.6 - - - - SE 37 - 20 - - 1016.0 -
19/07:00pm 23.8 - - - - SE 35 41 19 22 1015.9 - -
19/06:30pm 23.8 - - - - SE 37 43 20 23 1015.5 - -
19/06:24pm 23.8 - - - - SE 37 - 20 - - 1015.4 -
19/06:00pm 23.8 - - - - SSE 37 43 20 23 1015.3 - -
19/05:30pm 23.9 - - - - SSE 37 43 20 23 1015.0 - -
19/05:24pm 24.0 - - - - SSE 37 - 20 - - 1014.8 -
19/05:00pm 24.1 - - - - SSE 33 41 18 22 1014.8 - -
19/04:30pm 24.4 - - - - SE 30 35 16 19 1014.6 - -
19/04:24pm 24.4 - - - - SE 28 - 15 - - 1014.5 -
19/04:00pm 24.4 - - - - SE 26 32 14 17 1014.5 - -
19/03:30pm 24.4 - - - - SSE 28 32 15 17 1014.4 - -
19/03:24pm 24.4 - - - - SSE 30 - 16 - - 1014.3 -
19/03:00pm 24.3 - - - - SSE 26 32 14 17 1014.4 - -
19/02:30pm 24.3 - - - - S 28 32 15 17 1014.5 - -
19/02:24pm 24.1 - - - - S 30 - 16 - - 1014.4 -
19/02:00pm 24.1 - - - - S 28 32 15 17 1014.7 - -
19/01:30pm 24.5 - - - - S 30 32 16 17 1014.8 - -
19/01:24pm 24.3 - - - - S 30 - 16 - - 1014.7 -
19/01:00pm 24.2 - - - - S 30 33 16 18 1015.3 - -
19/12:30pm 24.3 - - - - S 26 30 14 16 1015.7 - -
19/12:24pm 24.5 - - - - S 26 - 14 - - 1015.7 -
19/12:00pm 24.3 - - - - S 26 32 14 17 1016.1 - -
19/11:30am 24.1 - - - - S 24 28 13 15 1016.4 - -
19/11:24am 24.2 - - - - S 24 - 13 - - 1016.4 -
19/11:00am 24.3 - - - - S 26 30 14 16 1016.6 - -
19/10:30am 24.1 - - - - S 24 28 13 15 1016.8 - -
19/10:24am 24.1 - - - - S 24 - 13 - - 1016.7 -
19/10:00am 24.0 - - - - S 22 26 12 14 1017.1 - -
19/09:30am 24.0 - - - - S 20 24 11 13 1017.1 - -
19/09:24am 24.0 - - - - S 20 - 11 - - 1017.0 -
19/09:00am 23.8 - - - - S 20 24 11 13 1017.1 - -
19/08:30am 23.7 - - - - S 19 22 10 12 1017.0 - -
19/08:24am 23.8 - - - - S 19 - 10 - - 1016.9 -
19/08:00am 23.7 - - - - S 22 26 12 14 1016.8 - -
19/07:30am 23.6 - - - - S 19 20 10 11 1016.7 - -
19/07:24am 23.5 - - - - S 19 - 10 - - 1016.5 -
19/07:00am 23.3 - - - - S 17 20 9 11 1016.3 - -
19/06:30am 23.2 - - - - SE 9 11 5 6 1016.0 - -
19/06:24am 23.1 - - - - SE 9 - 5 - - 1015.8 -
19/06:00am 23.1 - - - - ESE 9 11 5 6 1015.5 - -
19/05:30am 23.2 - - - - ESE 9 11 5 6 1015.6 - -
19/05:24am 23.2 - - - - ESE 9 - 5 - - 1015.5 -
19/05:00am 23.2 - - - - ESE 11 13 6 7 1015.3 - -
19/04:30am 23.1 - - - - ESE 11 13 6 7 1015.2 - -
19/04:24am 23.2 - - - - ESE 11 - 6 - - 1015.1 -
19/04:00am 23.3 - - - - ESE 13 17 7 9 1015.3 - -
19/03:30am 23.3 - - - - SSE 13 17 7 9 1015.4 - -
19/03:24am 23.2 - - - - SSE 13 - 7 - - 1015.4 -
19/03:00am 23.4 - - - - E 11 15 6 8 1015.6 - -
19/02:30am 23.3 - - - - E 11 13 6 7 1015.7 - -
19/02:24am 23.3 - - - - E 11 - 6 - - 1015.6 -
19/02:00am 23.3 - - - - E 11 15 6 8 1015.8 - -
19/01:30am 23.4 - - - - E 13 15 7 8 1015.8 - -
19/01:24am 23.4 - - - - E 13 - 7 - - 1015.8 -
19/01:00am 23.5 - - - - ESE 13 17 7 9 1016.2 - -
19/12:30am 23.5 - - - - ESE 13 15 7 8 1016.5 - -
19/12:24am 23.5 - - - - ESE 13 - 7 - - 1016.4 -
19/12:00am 23.6 - - - - ESE 13 15 7 8 1016.8 - -
 
Date/Time
EST
Temp
°C
App
Temp
°C
Dew
Point
°C
Rel
Hum
%
Delta-T
°C
Wind Press
QNH
hPa
Press
MSL
hPa
Rain since
9am
mm
Dir  Spd
km/h
Gust
km/h
Spd
kts
Gust
kts
18/11:30pm 23.6 - - - - ESE 11 15 6 8 1016.9 - -
18/11:24pm 23.7 - - - - ESE 13 - 7 - - 1016.8 -
18/11:00pm 23.9 - - - - ESE 13 15 7 8 1017.0 - -
18/10:30pm 24.0 - - - - ESE 13 17 7 9 1017.0 - -
18/10:24pm 24.0 - - - - ESE 13 - 7 - - 1016.9 -
18/10:00pm 23.9 - - - - ESE 13 15 7 8 1017.1 - -
18/09:30pm 23.9 - - - - ESE 13 17 7 9 1017.0 - -
18/09:24pm 23.9 - - - - ESE 13 - 7 - - 1016.9 -
18/09:00pm 24.0 - - - - ESE 13 17 7 9 1017.1 - -
18/08:30pm 24.0 - - - - ESE 13 15 7 8 1016.7 - -
18/08:24pm 23.9 - - - - ESE 15 - 8 - - 1016.4 -
18/08:00pm 24.2 - - - - SE 15 17 8 9 1016.3 - -
18/07:30pm 24.0 - - - - SSE 15 19 8 10 1016.2 - -
18/07:24pm 24.1 - - - - SSE 15 - 8 - - 1016.1 -
18/07:00pm 23.9 - - - - SSE 17 22 9 12 1016.1 - -
18/06:30pm 24.2 - - - - SSE 15 19 8 10 1015.8 - -
18/06:24pm 24.1 - - - - SSE 17 - 9 - - 1015.6 -
18/06:00pm 24.2 - - - - SSE 15 17 8 9 1015.5 - -
18/05:30pm 24.2 - - - - S 15 19 8 10 1015.3 - -
18/05:24pm 24.2 - - - - S 15 - 8 - - 1015.2 -
18/05:00pm 24.1 - - - - SSE 13 17 7 9 1015.3 - -
18/04:30pm 24.1 - - - - SSE 13 17 7 9 1014.9 - -
18/04:24pm 24.0 - - - - SSE 15 - 8 - - 1014.7 -
18/04:00pm 24.2 - - - - S 13 17 7 9 1014.6 - -
18/03:30pm 24.1 - - - - S 13 17 7 9 1014.5 - -
18/03:24pm 24.0 - - - - S 13 - 7 - - 1014.3 -
18/03:00pm 24.3 - - - - SE 11 15 6 8 1014.5 - -
18/02:30pm 24.4 - - - - E 9 11 5 6 1014.6 - -
18/02:24pm 24.4 - - - - E 7 - 4 - - 1014.5 -
18/02:00pm 24.7 - - - - E 7 11 4 6 1014.8 - -
18/01:30pm 24.8 - - - - E 9 11 5 6 1015.2 - -
18/01:24pm 24.6 - - - - E 9 - 5 - - 1015.1 -
18/01:00pm 24.7 - - - - E 9 13 5 7 1015.5 - -
18/12:30pm 24.7 - - - - E 9 13 5 7 1015.9 - -
18/12:24pm 24.8 - - - - E 9 - 5 - - 1015.9 -
18/12:00pm 25.5 - - - - E 9 13 5 7 1016.2 - -
18/11:30am 25.5 - - - - E 13 15 7 8 1016.5 - -
18/11:24am 25.4 - - - - E 13 - 7 - - 1016.4 -
18/11:00am 25.2 - - - - E 15 17 8 9 1016.8 - -
18/10:30am 25.4 - - - - E 13 17 7 9 1017.2 - -
18/10:24am 25.2 - - - - ENE 13 - 7 - - 1017.2 -
18/10:00am 25.4 - - - - E 11 15 6 8 1017.5 - -
18/09:30am 25.4 - - - - E 13 17 7 9 1017.6 - -
18/09:24am 24.7 - - - - E 15 - 8 - - 1017.5 -
18/09:00am 24.3 - - - - E 15 19 8 10 1017.4 - -
18/08:30am 24.3 - - - - ESE 15 19 8 10 1017.3 - -
18/08:24am 24.1 - - - - E 11 - 6 - - 1017.1 -
18/08:00am 23.8 - - - - ESE 15 17 8 9 1016.9 - -
18/07:30am 23.9 - - - - ESE 15 19 8 10 1016.7 - -
18/07:24am 23.6 - - - - ESE 15 - 8 - - 1016.6 -

Other Formats:

Comma delimited format used in spreadsheet applications
http://www.bom.gov.au/fwo/IDQ60801/IDQ60801.94290.axf

JavaScript Object Notation format (JSON) in row-major order
http://www.bom.gov.au/fwo/IDQ60801/IDQ60801.94290.json